sensor_id;sensor_type;location;lat;lon;timestamp;P1;durP1;ratioP1;P2;durP2;ratioP2
75504;SDS011;64085;54.974;73.410;2023-06-10T00:00:22;10.90;;;6.75;;
75504;SDS011;64085;54.974;73.410;2023-06-10T00:02:47;9.45;;;6.53;;
75504;SDS011;64085;54.974;73.410;2023-06-10T00:05:13;12.60;;;7.03;;
75504;SDS011;64085;54.974;73.410;2023-06-10T00:10:44;11.50;;;6.47;;
75504;SDS011;64085;54.974;73.410;2023-06-10T00:13:10;12.20;;;6.32;;
75504;SDS011;64085;54.974;73.410;2023-06-10T00:15:54;8.50;;;5.32;;
75504;SDS011;64085;54.974;73.410;2023-06-10T00:18:19;7.80;;;5.18;;
75504;SDS011;64085;54.974;73.410;2023-06-10T00:20:47;6.47;;;3.97;;
75504;SDS011;64085;54.974;73.410;2023-06-10T00:23:14;5.97;;;4.82;;
75504;SDS011;64085;54.974;73.410;2023-06-10T00:25:39;8.00;;;4.55;;
75504;SDS011;64085;54.974;73.410;2023-06-10T00:31:09;8.70;;;3.75;;
75504;SDS011;64085;54.974;73.410;2023-06-10T00:33:35;7.68;;;3.80;;
75504;SDS011;64085;54.974;73.410;2023-06-10T00:36:19;6.60;;;3.85;;
75504;SDS011;64085;54.974;73.410;2023-06-10T00:38:44;7.53;;;3.72;;
75504;SDS011;64085;54.974;73.410;2023-06-10T00:41:10;6.80;;;3.88;;
75504;SDS011;64085;54.974;73.410;2023-06-10T00:43:35;7.28;;;3.92;;
75504;SDS011;64085;54.974;73.410;2023-06-10T00:46:01;6.55;;;3.75;;
75504;SDS011;64085;54.974;73.410;2023-06-10T00:48:26;6.10;;;3.70;;
75504;SDS011;64085;54.974;73.410;2023-06-10T00:50:52;9.15;;;3.78;;
75504;SDS011;64085;54.974;73.410;2023-06-10T00:53:18;8.57;;;3.97;;
75504;SDS011;64085;54.974;73.410;2023-06-10T00:55:44;9.27;;;3.95;;
75504;SDS011;64085;54.974;73.410;2023-06-10T00:58:09;6.65;;;3.80;;
75504;SDS011;64085;54.974;73.410;2023-06-10T01:00:35;6.85;;;4.22;;
75504;SDS011;64085;54.974;73.410;2023-06-10T01:03:01;5.60;;;3.63;;
75504;SDS011;64085;54.974;73.410;2023-06-10T01:05:26;6.97;;;3.90;;
75504;SDS011;64085;54.974;73.410;2023-06-10T01:11:01;7.18;;;5.13;;
75504;SDS011;64085;54.974;73.410;2023-06-10T01:13:29;8.30;;;3.47;;
75504;SDS011;64085;54.974;73.410;2023-06-10T01:15:57;9.00;;;4.03;;
75504;SDS011;64085;54.974;73.410;2023-06-10T01:18:22;5.10;;;3.35;;
75504;SDS011;64085;54.974;73.410;2023-06-10T01:20:48;7.15;;;4.07;;
75504;SDS011;64085;54.974;73.410;2023-06-10T01:23:14;6.57;;;4.40;;
75504;SDS011;64085;54.974;73.410;2023-06-10T01:25:41;8.60;;;4.40;;
75504;SDS011;64085;54.974;73.410;2023-06-10T01:28:29;7.35;;;4.22;;
75504;SDS011;64085;54.974;73.410;2023-06-10T01:33:43;9.30;;;4.95;;
75504;SDS011;64085;54.974;73.410;2023-06-10T01:36:10;11.10;;;5.47;;
75504;SDS011;64085;54.974;73.410;2023-06-10T01:38:40;8.32;;;4.70;;
75504;SDS011;64085;54.974;73.410;2023-06-10T01:41:06;12.30;;;5.40;;
75504;SDS011;64085;54.974;73.410;2023-06-10T01:43:34;13.85;;;5.40;;
75504;SDS011;64085;54.974;73.410;2023-06-10T01:49:04;14.95;;;5.65;;
75504;SDS011;64085;54.974;73.410;2023-06-10T01:51:30;16.92;;;5.70;;
75504;SDS011;64085;54.974;73.410;2023-06-10T01:53:56;15.02;;;6.38;;
75504;SDS011;64085;54.974;73.410;2023-06-10T01:56:22;9.88;;;5.65;;
75504;SDS011;64085;54.974;73.410;2023-06-10T01:58:47;13.75;;;5.50;;
75504;SDS011;64085;54.974;73.410;2023-06-10T02:01:13;10.82;;;5.15;;
75504;SDS011;64085;54.974;73.410;2023-06-10T02:03:38;14.35;;;6.10;;
75504;SDS011;64085;54.974;73.410;2023-06-10T02:06:04;12.82;;;6.00;;
75504;SDS011;64085;54.974;73.410;2023-06-10T02:08:29;11.90;;;5.47;;
75504;SDS011;64085;54.974;73.410;2023-06-10T02:10:54;10.35;;;5.70;;
75504;SDS011;64085;54.974;73.410;2023-06-10T02:13:20;12.70;;;5.82;;
75504;SDS011;64085;54.974;73.410;2023-06-10T02:15:45;12.50;;;5.50;;
75504;SDS011;64085;54.974;73.410;2023-06-10T02:18:11;15.93;;;6.28;;
75504;SDS011;64085;54.974;73.410;2023-06-10T02:26:23;8.05;;;4.22;;
75504;SDS011;64085;54.974;73.410;2023-06-10T02:28:51;8.52;;;4.75;;
75504;SDS011;64085;54.974;73.410;2023-06-10T02:31:16;7.47;;;4.65;;
75504;SDS011;64085;54.974;73.410;2023-06-10T02:34:00;7.05;;;5.10;;
75504;SDS011;64085;54.974;73.410;2023-06-10T02:36:25;12.48;;;5.25;;
75504;SDS011;64085;54.974;73.410;2023-06-10T02:38:52;10.48;;;5.47;;
75504;SDS011;64085;54.974;73.410;2023-06-10T02:41:18;11.50;;;5.70;;
75504;SDS011;64085;54.974;73.410;2023-06-10T02:43:43;16.08;;;6.07;;
75504;SDS011;64085;54.974;73.410;2023-06-10T02:46:09;9.77;;;5.25;;
75504;SDS011;64085;54.974;73.410;2023-06-10T02:48:40;9.52;;;6.38;;
75504;SDS011;64085;54.974;73.410;2023-06-10T02:51:05;9.13;;;5.28;;
75504;SDS011;64085;54.974;73.410;2023-06-10T02:53:31;8.52;;;5.47;;
75504;SDS011;64085;54.974;73.410;2023-06-10T02:55:56;9.00;;;5.38;;
75504;SDS011;64085;54.974;73.410;2023-06-10T02:58:22;7.53;;;6.18;;
75504;SDS011;64085;54.974;73.410;2023-06-10T03:00:47;10.52;;;5.45;;
75504;SDS011;64085;54.974;73.410;2023-06-10T03:03:13;6.35;;;4.70;;
75504;SDS011;64085;54.974;73.410;2023-06-10T03:05:38;8.13;;;4.97;;
75504;SDS011;64085;54.974;73.410;2023-06-10T03:08:04;8.38;;;5.30;;
75504;SDS011;64085;54.974;73.410;2023-06-10T03:10:29;8.02;;;5.03;;
75504;SDS011;64085;54.974;73.410;2023-06-10T03:12:55;7.95;;;5.28;;
75504;SDS011;64085;54.974;73.410;2023-06-10T03:15:20;7.63;;;4.93;;
75504;SDS011;64085;54.974;73.410;2023-06-10T03:17:45;6.78;;;4.82;;
75504;SDS011;64085;54.974;73.410;2023-06-10T03:20:11;9.90;;;5.32;;
75504;SDS011;64085;54.974;73.410;2023-06-10T03:22:37;6.53;;;4.72;;
75504;SDS011;64085;54.974;73.410;2023-06-10T03:25:20;4.57;;;4.10;;
75504;SDS011;64085;54.974;73.410;2023-06-10T03:27:46;7.18;;;4.63;;
75504;SDS011;64085;54.974;73.410;2023-06-10T03:30:12;7.75;;;4.45;;
75504;SDS011;64085;54.974;73.410;2023-06-10T03:32:37;6.65;;;4.43;;
75504;SDS011;64085;54.974;73.410;2023-06-10T03:35:03;6.18;;;4.10;;
75504;SDS011;64085;54.974;73.410;2023-06-10T03:37:28;6.90;;;4.63;;
75504;SDS011;64085;54.974;73.410;2023-06-10T03:39:54;9.68;;;4.07;;
75504;SDS011;64085;54.974;73.410;2023-06-10T03:42:19;5.47;;;3.78;;
75504;SDS011;64085;54.974;73.410;2023-06-10T03:44:44;10.40;;;4.75;;
75504;SDS011;64085;54.974;73.410;2023-06-10T03:47:10;6.78;;;3.92;;
75504;SDS011;64085;54.974;73.410;2023-06-10T03:49:35;9.18;;;4.35;;
75504;SDS011;64085;54.974;73.410;2023-06-10T03:52:01;8.55;;;5.03;;
75504;SDS011;64085;54.974;73.410;2023-06-10T03:54:27;8.40;;;3.88;;
75504;SDS011;64085;54.974;73.410;2023-06-10T03:56:52;7.45;;;4.25;;
75504;SDS011;64085;54.974;73.410;2023-06-10T04:02:02;6.55;;;4.43;;
75504;SDS011;64085;54.974;73.410;2023-06-10T04:04:27;7.47;;;4.40;;
75504;SDS011;64085;54.974;73.410;2023-06-10T04:06:55;8.45;;;5.30;;
75504;SDS011;64085;54.974;73.410;2023-06-10T04:12:05;12.73;;;4.95;;
75504;SDS011;64085;54.974;73.410;2023-06-10T04:14:35;7.47;;;5.25;;
75504;SDS011;64085;54.974;73.410;2023-06-10T04:19:31;12.98;;;6.75;;
75504;SDS011;64085;54.974;73.410;2023-06-10T04:21:57;11.93;;;7.10;;
75504;SDS011;64085;54.974;73.410;2023-06-10T04:24:22;17.02;;;9.63;;
75504;SDS011;64085;54.974;73.410;2023-06-10T04:26:48;18.63;;;10.13;;
75504;SDS011;64085;54.974;73.410;2023-06-10T04:29:13;18.33;;;9.10;;
75504;SDS011;64085;54.974;73.410;2023-06-10T04:31:39;15.40;;;7.32;;
75504;SDS011;64085;54.974;73.410;2023-06-10T04:34:23;10.20;;;5.47;;
75504;SDS011;64085;54.974;73.410;2023-06-10T04:36:48;16.02;;;6.25;;
75504;SDS011;64085;54.974;73.410;2023-06-10T04:39:14;10.55;;;6.25;;
75504;SDS011;64085;54.974;73.410;2023-06-10T04:41:41;12.60;;;5.20;;
75504;SDS011;64085;54.974;73.410;2023-06-10T04:44:07;12.07;;;5.40;;
75504;SDS011;64085;54.974;73.410;2023-06-10T04:46:35;6.68;;;4.13;;
75504;SDS011;64085;54.974;73.410;2023-06-10T04:49:01;9.38;;;4.30;;
75504;SDS011;64085;54.974;73.410;2023-06-10T04:51:27;5.60;;;3.95;;
75504;SDS011;64085;54.974;73.410;2023-06-10T04:53:53;8.00;;;4.38;;
75504;SDS011;64085;54.974;73.410;2023-06-10T04:56:18;8.20;;;5.07;;
75504;SDS011;64085;54.974;73.410;2023-06-10T04:58:45;6.88;;;4.85;;
75504;SDS011;64085;54.974;73.410;2023-06-10T05:01:10;7.45;;;5.78;;
75504;SDS011;64085;54.974;73.410;2023-06-10T05:03:35;7.10;;;5.13;;
75504;SDS011;64085;54.974;73.410;2023-06-10T05:06:01;5.97;;;5.35;;
75504;SDS011;64085;54.974;73.410;2023-06-10T05:08:26;8.20;;;5.07;;
75504;SDS011;64085;54.974;73.410;2023-06-10T05:10:52;6.50;;;4.97;;
75504;SDS011;64085;54.974;73.410;2023-06-10T05:13:17;7.50;;;5.60;;
75504;SDS011;64085;54.974;73.410;2023-06-10T05:15:43;7.28;;;4.22;;
75504;SDS011;64085;54.974;73.410;2023-06-10T05:18:10;9.13;;;5.38;;
75504;SDS011;64085;54.974;73.410;2023-06-10T05:20:35;11.38;;;5.05;;
75504;SDS011;64085;54.974;73.410;2023-06-10T05:23:01;5.38;;;4.50;;
75504;SDS011;64085;54.974;73.410;2023-06-10T05:25:28;8.93;;;4.55;;
75504;SDS011;64085;54.974;73.410;2023-06-10T05:27:55;7.93;;;4.60;;
75504;SDS011;64085;54.974;73.410;2023-06-10T05:30:20;8.77;;;4.85;;
75504;SDS011;64085;54.974;73.410;2023-06-10T05:33:04;8.73;;;4.40;;
75504;SDS011;64085;54.974;73.410;2023-06-10T05:35:30;7.88;;;4.50;;
75504;SDS011;64085;54.974;73.410;2023-06-10T05:38:14;5.55;;;4.57;;
75504;SDS011;64085;54.974;73.410;2023-06-10T05:40:39;5.32;;;4.82;;
75504;SDS011;64085;54.974;73.410;2023-06-10T05:43:05;9.95;;;4.75;;
75504;SDS011;64085;54.974;73.410;2023-06-10T05:45:30;8.77;;;5.88;;
75504;SDS011;64085;54.974;73.410;2023-06-10T05:47:56;8.63;;;4.53;;
75504;SDS011;64085;54.974;73.410;2023-06-10T05:50:23;5.50;;;4.35;;
75504;SDS011;64085;54.974;73.410;2023-06-10T05:52:49;7.22;;;4.85;;
75504;SDS011;64085;54.974;73.410;2023-06-10T05:55:14;6.90;;;4.72;;
75504;SDS011;64085;54.974;73.410;2023-06-10T05:57:41;3.92;;;3.53;;
75504;SDS011;64085;54.974;73.410;2023-06-10T06:00:07;7.50;;;3.97;;
75504;SDS011;64085;54.974;73.410;2023-06-10T06:02:32;5.30;;;4.13;;
75504;SDS011;64085;54.974;73.410;2023-06-10T06:04:58;7.20;;;3.80;;
75504;SDS011;64085;54.974;73.410;2023-06-10T06:07:23;5.22;;;3.65;;
75504;SDS011;64085;54.974;73.410;2023-06-10T06:09:48;7.63;;;4.28;;
75504;SDS011;64085;54.974;73.410;2023-06-10T06:12:14;7.10;;;3.35;;
75504;SDS011;64085;54.974;73.410;2023-06-10T06:14:39;5.95;;;3.00;;
75504;SDS011;64085;54.974;73.410;2023-06-10T06:17:05;5.35;;;3.60;;
75504;SDS011;64085;54.974;73.410;2023-06-10T06:19:31;4.25;;;3.45;;
75504;SDS011;64085;54.974;73.410;2023-06-10T06:21:56;6.80;;;4.13;;
75504;SDS011;64085;54.974;73.410;2023-06-10T06:24:22;6.68;;;3.22;;
75504;SDS011;64085;54.974;73.410;2023-06-10T06:26:47;3.70;;;3.33;;
75504;SDS011;64085;54.974;73.410;2023-06-10T06:29:13;8.00;;;3.50;;
75504;SDS011;64085;54.974;73.410;2023-06-10T06:31:38;6.88;;;3.75;;
75504;SDS011;64085;54.974;73.410;2023-06-10T06:34:04;4.07;;;3.42;;
75504;SDS011;64085;54.974;73.410;2023-06-10T06:36:29;5.35;;;3.40;;
75504;SDS011;64085;54.974;73.410;2023-06-10T06:38:55;5.68;;;3.45;;
75504;SDS011;64085;54.974;73.410;2023-06-10T06:41:20;4.65;;;3.38;;
75504;SDS011;64085;54.974;73.410;2023-06-10T06:43:47;6.57;;;3.78;;
75504;SDS011;64085;54.974;73.410;2023-06-10T06:46:12;4.80;;;2.90;;
75504;SDS011;64085;54.974;73.410;2023-06-10T06:51:22;5.18;;;3.53;;
75504;SDS011;64085;54.974;73.410;2023-06-10T06:53:48;4.32;;;3.28;;
75504;SDS011;64085;54.974;73.410;2023-06-10T06:56:15;5.60;;;3.65;;
75504;SDS011;64085;54.974;73.410;2023-06-10T06:58:40;6.07;;;3.33;;
75504;SDS011;64085;54.974;73.410;2023-06-10T07:01:06;4.15;;;3.13;;
75504;SDS011;64085;54.974;73.410;2023-06-10T07:06:16;7.20;;;3.35;;
75504;SDS011;64085;54.974;73.410;2023-06-10T07:08:41;8.20;;;3.55;;
75504;SDS011;64085;54.974;73.410;2023-06-10T07:11:07;4.13;;;3.40;;
75504;SDS011;64085;54.974;73.410;2023-06-10T07:13:50;9.00;;;4.72;;
75504;SDS011;64085;54.974;73.410;2023-06-10T07:16:16;10.48;;;3.88;;
75504;SDS011;64085;54.974;73.410;2023-06-10T07:18:41;5.88;;;4.05;;
75504;SDS011;64085;54.974;73.410;2023-06-10T07:23:53;6.35;;;3.58;;
75504;SDS011;64085;54.974;73.410;2023-06-10T07:26:19;6.22;;;3.55;;
75504;SDS011;64085;54.974;73.410;2023-06-10T07:28:44;4.18;;;3.47;;
75504;SDS011;64085;54.974;73.410;2023-06-10T07:31:09;6.22;;;4.55;;
75504;SDS011;64085;54.974;73.410;2023-06-10T07:33:37;6.75;;;3.70;;
75504;SDS011;64085;54.974;73.410;2023-06-10T07:36:04;6.25;;;3.97;;
75504;SDS011;64085;54.974;73.410;2023-06-10T07:38:31;5.05;;;3.85;;
75504;SDS011;64085;54.974;73.410;2023-06-10T07:40:56;8.13;;;4.20;;
75504;SDS011;64085;54.974;73.410;2023-06-10T07:43:21;5.47;;;4.40;;
75504;SDS011;64085;54.974;73.410;2023-06-10T07:45:47;3.50;;;3.20;;
75504;SDS011;64085;54.974;73.410;2023-06-10T07:48:12;6.88;;;3.35;;
75504;SDS011;64085;54.974;73.410;2023-06-10T07:50:41;6.10;;;3.67;;
75504;SDS011;64085;54.974;73.410;2023-06-10T07:53:06;4.90;;;3.90;;
75504;SDS011;64085;54.974;73.410;2023-06-10T07:55:32;8.07;;;3.65;;
75504;SDS011;64085;54.974;73.410;2023-06-10T07:57:57;6.43;;;3.58;;
75504;SDS011;64085;54.974;73.410;2023-06-10T08:00:23;4.13;;;3.00;;
75504;SDS011;64085;54.974;73.410;2023-06-10T08:02:48;5.53;;;3.55;;
75504;SDS011;64085;54.974;73.410;2023-06-10T08:05:13;5.05;;;3.05;;
75504;SDS011;64085;54.974;73.410;2023-06-10T08:07:39;3.28;;;2.80;;
75504;SDS011;64085;54.974;73.410;2023-06-10T08:10:05;4.72;;;2.75;;
75504;SDS011;64085;54.974;73.410;2023-06-10T08:12:30;4.82;;;3.03;;
75504;SDS011;64085;54.974;73.410;2023-06-10T08:14:56;6.18;;;3.20;;
75504;SDS011;64085;54.974;73.410;2023-06-10T08:20:06;6.47;;;3.28;;
75504;SDS011;64085;54.974;73.410;2023-06-10T08:22:31;3.20;;;2.80;;
75504;SDS011;64085;54.974;73.410;2023-06-10T08:24:57;3.75;;;3.10;;
75504;SDS011;64085;54.974;73.410;2023-06-10T08:27:23;3.30;;;3.00;;
75504;SDS011;64085;54.974;73.410;2023-06-10T08:29:48;4.72;;;2.90;;
75504;SDS011;64085;54.974;73.410;2023-06-10T08:34:58;8.90;;;3.55;;
75504;SDS011;64085;54.974;73.410;2023-06-10T08:37:23;4.70;;;3.10;;
75504;SDS011;64085;54.974;73.410;2023-06-10T08:39:49;4.38;;;2.95;;
75504;SDS011;64085;54.974;73.410;2023-06-10T08:42:19;4.85;;;3.13;;
75504;SDS011;64085;54.974;73.410;2023-06-10T08:44:46;5.07;;;3.25;;
75504;SDS011;64085;54.974;73.410;2023-06-10T08:49:38;4.13;;;3.35;;
75504;SDS011;64085;54.974;73.410;2023-06-10T08:52:06;5.07;;;2.88;;
75504;SDS011;64085;54.974;73.410;2023-06-10T08:54:33;4.05;;;3.10;;
75504;SDS011;64085;54.974;73.410;2023-06-10T08:59:47;3.92;;;2.45;;
75504;SDS011;64085;54.974;73.410;2023-06-10T09:02:13;6.57;;;3.33;;
75504;SDS011;64085;54.974;73.410;2023-06-10T09:04:40;4.35;;;3.35;;
75504;SDS011;64085;54.974;73.410;2023-06-10T09:07:07;4.93;;;3.42;;
75504;SDS011;64085;54.974;73.410;2023-06-10T09:09:32;3.90;;;3.42;;
75504;SDS011;64085;54.974;73.410;2023-06-10T09:12:02;6.45;;;4.10;;
75504;SDS011;64085;54.974;73.410;2023-06-10T09:14:28;6.38;;;3.60;;
75504;SDS011;64085;54.974;73.410;2023-06-10T09:16:53;6.10;;;3.47;;
75504;SDS011;64085;54.974;73.410;2023-06-10T09:19:38;6.03;;;3.53;;
75504;SDS011;64085;54.974;73.410;2023-06-10T09:22:04;11.25;;;4.03;;
75504;SDS011;64085;54.974;73.410;2023-06-10T09:24:29;11.55;;;4.97;;
75504;SDS011;64085;54.974;73.410;2023-06-10T09:27:04;7.28;;;3.08;;
75504;SDS011;64085;54.974;73.410;2023-06-10T09:29:31;6.70;;;3.42;;
75504;SDS011;64085;54.974;73.410;2023-06-10T09:31:56;4.72;;;3.45;;
75504;SDS011;64085;54.974;73.410;2023-06-10T09:34:24;7.60;;;3.50;;
75504;SDS011;64085;54.974;73.410;2023-06-10T09:42:02;6.80;;;3.07;;
75504;SDS011;64085;54.974;73.410;2023-06-10T09:44:40;5.50;;;3.10;;
75504;SDS011;64085;54.974;73.410;2023-06-10T09:47:05;6.93;;;3.53;;
75504;SDS011;64085;54.974;73.410;2023-06-10T09:49:31;4.68;;;2.50;;
75504;SDS011;64085;54.974;73.410;2023-06-10T09:52:20;7.63;;;3.55;;
75504;SDS011;64085;54.974;73.410;2023-06-10T09:54:46;6.00;;;3.70;;
75504;SDS011;64085;54.974;73.410;2023-06-10T09:57:11;7.72;;;3.85;;
75504;SDS011;64085;54.974;73.410;2023-06-10T10:05:05;8.55;;;4.50;;
75504;SDS011;64085;54.974;73.410;2023-06-10T10:07:31;5.63;;;3.58;;
75504;SDS011;64085;54.974;73.410;2023-06-10T10:09:57;7.35;;;4.30;;
75504;SDS011;64085;54.974;73.410;2023-06-10T10:12:22;5.80;;;4.07;;
75504;SDS011;64085;54.974;73.410;2023-06-10T10:14:48;6.72;;;3.58;;
75504;SDS011;64085;54.974;73.410;2023-06-10T10:17:15;4.18;;;3.38;;
75504;SDS011;64085;54.974;73.410;2023-06-10T10:19:46;8.60;;;4.53;;
75504;SDS011;64085;54.974;73.410;2023-06-10T10:22:15;7.40;;;4.15;;
75504;SDS011;64085;54.974;73.410;2023-06-10T10:24:50;3.17;;;2.63;;
75504;SDS011;64085;54.974;73.410;2023-06-10T10:27:27;5.65;;;4.30;;
75504;SDS011;64085;54.974;73.410;2023-06-10T10:29:53;9.27;;;5.65;;
75504;SDS011;64085;54.974;73.410;2023-06-10T10:37:58;6.22;;;4.70;;
75504;SDS011;64085;54.974;73.410;2023-06-10T10:40:24;8.10;;;5.22;;
75504;SDS011;64085;54.974;73.410;2023-06-10T10:42:50;6.07;;;5.07;;
75504;SDS011;64085;54.974;73.410;2023-06-10T10:45:16;4.93;;;3.70;;
75504;SDS011;64085;54.974;73.410;2023-06-10T10:47:42;4.28;;;3.75;;
75504;SDS011;64085;54.974;73.410;2023-06-10T10:50:18;6.03;;;3.63;;
75504;SDS011;64085;54.974;73.410;2023-06-10T10:52:51;6.60;;;3.80;;
75504;SDS011;64085;54.974;73.410;2023-06-10T10:55:17;8.32;;;4.25;;
75504;SDS011;64085;54.974;73.410;2023-06-10T11:03:14;9.82;;;3.85;;
75504;SDS011;64085;54.974;73.410;2023-06-10T11:05:58;7.80;;;4.40;;
75504;SDS011;64085;54.974;73.410;2023-06-10T11:11:24;8.30;;;6.03;;
75504;SDS011;64085;54.974;73.410;2023-06-10T11:16:38;9.23;;;4.68;;
75504;SDS011;64085;54.974;73.410;2023-06-10T11:19:03;12.55;;;5.30;;
75504;SDS011;64085;54.974;73.410;2023-06-10T11:21:29;10.98;;;5.53;;
75504;SDS011;64085;54.974;73.410;2023-06-10T11:29:07;6.93;;;4.77;;
75504;SDS011;64085;54.974;73.410;2023-06-10T11:34:23;9.50;;;6.18;;
75504;SDS011;64085;54.974;73.410;2023-06-10T11:36:53;7.82;;;5.38;;
75504;SDS011;64085;54.974;73.410;2023-06-10T11:39:37;8.20;;;5.22;;
75504;SDS011;64085;54.974;73.410;2023-06-10T11:42:02;12.18;;;5.95;;
75504;SDS011;64085;54.974;73.410;2023-06-10T11:44:28;10.45;;;5.38;;
75504;SDS011;64085;54.974;73.410;2023-06-10T11:46:56;11.57;;;6.50;;
75504;SDS011;64085;54.974;73.410;2023-06-10T11:52:05;6.82;;;4.03;;
75504;SDS011;64085;54.974;73.410;2023-06-10T11:54:31;4.88;;;3.63;;
75504;SDS011;64085;54.974;73.410;2023-06-10T11:57:00;7.13;;;4.28;;
75504;SDS011;64085;54.974;73.410;2023-06-10T11:59:29;6.10;;;3.80;;
75504;SDS011;64085;54.974;73.410;2023-06-10T12:01:54;6.82;;;3.90;;
75504;SDS011;64085;54.974;73.410;2023-06-10T12:04:20;5.18;;;4.20;;
75504;SDS011;64085;54.974;73.410;2023-06-10T12:06:50;6.07;;;3.97;;
75504;SDS011;64085;54.974;73.410;2023-06-10T12:09:19;6.43;;;3.42;;
75504;SDS011;64085;54.974;73.410;2023-06-10T12:11:45;4.90;;;3.20;;
75504;SDS011;64085;54.974;73.410;2023-06-10T12:14:13;5.22;;;2.60;;
75504;SDS011;64085;54.974;73.410;2023-06-10T12:16:38;4.70;;;2.67;;
75504;SDS011;64085;54.974;73.410;2023-06-10T12:19:22;4.95;;;2.60;;
75504;SDS011;64085;54.974;73.410;2023-06-10T12:21:48;4.75;;;2.67;;
75504;SDS011;64085;54.974;73.410;2023-06-10T12:24:13;3.45;;;2.92;;
75504;SDS011;64085;54.974;73.410;2023-06-10T12:26:40;6.55;;;3.05;;
75504;SDS011;64085;54.974;73.410;2023-06-10T12:29:39;4.50;;;2.95;;
75504;SDS011;64085;54.974;73.410;2023-06-10T12:32:16;5.43;;;2.80;;
75504;SDS011;64085;54.974;73.410;2023-06-10T12:34:41;4.45;;;2.85;;
75504;SDS011;64085;54.974;73.410;2023-06-10T12:37:10;9.15;;;3.50;;
75504;SDS011;64085;54.974;73.410;2023-06-10T12:39:38;8.20;;;3.38;;
75504;SDS011;64085;54.974;73.410;2023-06-10T12:42:04;7.22;;;3.65;;
75504;SDS011;64085;54.974;73.410;2023-06-10T12:44:52;8.25;;;3.78;;
75504;SDS011;64085;54.974;73.410;2023-06-10T12:47:18;3.78;;;2.47;;
75504;SDS011;64085;54.974;73.410;2023-06-10T12:50:02;4.75;;;2.50;;
75504;SDS011;64085;54.974;73.410;2023-06-10T12:52:28;2.90;;;2.30;;
75504;SDS011;64085;54.974;73.410;2023-06-10T12:57:37;4.55;;;2.67;;
75504;SDS011;64085;54.974;73.410;2023-06-10T13:00:12;5.25;;;2.90;;
75504;SDS011;64085;54.974;73.410;2023-06-10T13:02:39;8.57;;;2.67;;
75504;SDS011;64085;54.974;73.410;2023-06-10T13:05:04;6.53;;;2.88;;
75504;SDS011;64085;54.974;73.410;2023-06-10T13:07:29;5.68;;;3.03;;
75504;SDS011;64085;54.974;73.410;2023-06-10T13:09:55;5.50;;;3.70;;
75504;SDS011;64085;54.974;73.410;2023-06-10T13:12:21;4.55;;;3.25;;
75504;SDS011;64085;54.974;73.410;2023-06-10T13:14:47;5.38;;;3.22;;
75504;SDS011;64085;54.974;73.410;2023-06-10T13:17:15;5.03;;;3.42;;
75504;SDS011;64085;54.974;73.410;2023-06-10T13:19:41;6.95;;;2.80;;
75504;SDS011;64085;54.974;73.410;2023-06-10T13:22:07;8.05;;;2.38;;
75504;SDS011;64085;54.974;73.410;2023-06-10T13:24:34;3.95;;;2.88;;
75504;SDS011;64085;54.974;73.410;2023-06-10T13:26:59;4.93;;;3.03;;
75504;SDS011;64085;54.974;73.410;2023-06-10T13:29:25;6.88;;;2.83;;
75504;SDS011;64085;54.974;73.410;2023-06-10T13:32:08;4.30;;;3.13;;
75504;SDS011;64085;54.974;73.410;2023-06-10T13:34:35;4.68;;;3.38;;
75504;SDS011;64085;54.974;73.410;2023-06-10T13:39:44;5.82;;;3.55;;
75504;SDS011;64085;54.974;73.410;2023-06-10T13:42:12;6.00;;;3.53;;
75504;SDS011;64085;54.974;73.410;2023-06-10T13:44:37;5.32;;;3.90;;
75504;SDS011;64085;54.974;73.410;2023-06-10T13:47:03;6.72;;;4.43;;
75504;SDS011;64085;54.974;73.410;2023-06-10T13:52:14;4.75;;;3.88;;
75504;SDS011;64085;54.974;73.410;2023-06-10T13:54:40;7.07;;;4.03;;
75504;SDS011;64085;54.974;73.410;2023-06-10T13:57:05;5.93;;;3.90;;
75504;SDS011;64085;54.974;73.410;2023-06-10T13:59:31;6.20;;;3.75;;
75504;SDS011;64085;54.974;73.410;2023-06-10T14:01:56;6.38;;;3.75;;
75504;SDS011;64085;54.974;73.410;2023-06-10T14:04:22;9.38;;;4.38;;
75504;SDS011;64085;54.974;73.410;2023-06-10T14:09:31;6.45;;;4.10;;
75504;SDS011;64085;54.974;73.410;2023-06-10T14:11:57;8.88;;;4.45;;
75504;SDS011;64085;54.974;73.410;2023-06-10T14:14:22;9.13;;;4.55;;
75504;SDS011;64085;54.974;73.410;2023-06-10T14:16:48;4.70;;;3.70;;
75504;SDS011;64085;54.974;73.410;2023-06-10T14:19:15;7.97;;;4.22;;
75504;SDS011;64085;54.974;73.410;2023-06-10T14:21:40;9.13;;;4.55;;
75504;SDS011;64085;54.974;73.410;2023-06-10T14:24:06;9.40;;;5.18;;
75504;SDS011;64085;54.974;73.410;2023-06-10T14:26:31;6.53;;;5.00;;
75504;SDS011;64085;54.974;73.410;2023-06-10T14:28:57;8.88;;;4.95;;
75504;SDS011;64085;54.974;73.410;2023-06-10T14:31:23;9.85;;;5.63;;
75504;SDS011;64085;54.974;73.410;2023-06-10T14:33:48;5.65;;;3.88;;
75504;SDS011;64085;54.974;73.410;2023-06-10T14:36:14;11.32;;;5.10;;
75504;SDS011;64085;54.974;73.410;2023-06-10T14:38:39;8.73;;;4.63;;
75504;SDS011;64085;54.974;73.410;2023-06-10T14:41:05;14.00;;;5.28;;
75504;SDS011;64085;54.974;73.410;2023-06-10T14:43:30;6.53;;;4.88;;
75504;SDS011;64085;54.974;73.410;2023-06-10T14:45:55;8.88;;;5.07;;
75504;SDS011;64085;54.974;73.410;2023-06-10T14:48:22;10.90;;;5.57;;
75504;SDS011;64085;54.974;73.410;2023-06-10T14:50:47;7.93;;;5.20;;
75504;SDS011;64085;54.974;73.410;2023-06-10T14:53:16;8.23;;;5.10;;
75504;SDS011;64085;54.974;73.410;2023-06-10T14:55:42;7.20;;;4.50;;
75504;SDS011;64085;54.974;73.410;2023-06-10T14:58:07;6.80;;;3.90;;
75504;SDS011;64085;54.974;73.410;2023-06-10T15:00:33;8.93;;;5.15;;
75504;SDS011;64085;54.974;73.410;2023-06-10T15:02:58;9.35;;;4.85;;
75504;SDS011;64085;54.974;73.410;2023-06-10T15:05:23;7.40;;;4.63;;
75504;SDS011;64085;54.974;73.410;2023-06-10T15:07:50;9.70;;;4.40;;
75504;SDS011;64085;54.974;73.410;2023-06-10T15:10:15;8.45;;;4.82;;
75504;SDS011;64085;54.974;73.410;2023-06-10T15:12:41;4.72;;;3.38;;
75504;SDS011;64085;54.974;73.410;2023-06-10T15:17:51;7.75;;;4.47;;
75504;SDS011;64085;54.974;73.410;2023-06-10T15:20:16;7.38;;;4.80;;
75504;SDS011;64085;54.974;73.410;2023-06-10T15:23:00;6.93;;;4.88;;
75504;SDS011;64085;54.974;73.410;2023-06-10T15:25:26;7.78;;;4.72;;
75504;SDS011;64085;54.974;73.410;2023-06-10T15:27:52;6.55;;;3.75;;
75504;SDS011;64085;54.974;73.410;2023-06-10T15:30:17;4.65;;;4.13;;
75504;SDS011;64085;54.974;73.410;2023-06-10T15:32:43;6.15;;;3.28;;
75504;SDS011;64085;54.974;73.410;2023-06-10T15:35:08;7.22;;;3.55;;
75504;SDS011;64085;54.974;73.410;2023-06-10T15:37:33;6.13;;;4.00;;
75504;SDS011;64085;54.974;73.410;2023-06-10T15:39:59;6.18;;;4.78;;
75504;SDS011;64085;54.974;73.410;2023-06-10T15:42:24;4.38;;;3.95;;
75504;SDS011;64085;54.974;73.410;2023-06-10T15:45:09;5.85;;;4.50;;
75504;SDS011;64085;54.974;73.410;2023-06-10T15:53:02;10.68;;;6.43;;
75504;SDS011;64085;54.974;73.410;2023-06-10T15:55:27;5.30;;;4.13;;
75504;SDS011;64085;54.974;73.410;2023-06-10T15:57:54;9.32;;;5.28;;
75504;SDS011;64085;54.974;73.410;2023-06-10T16:00:20;6.82;;;4.50;;
75504;SDS011;64085;54.974;73.410;2023-06-10T16:02:45;6.90;;;4.30;;
75504;SDS011;64085;54.974;73.410;2023-06-10T16:05:10;5.65;;;3.88;;
75504;SDS011;64085;54.974;73.410;2023-06-10T16:07:36;5.60;;;4.18;;
75504;SDS011;64085;54.974;73.410;2023-06-10T16:10:01;6.85;;;3.78;;
75504;SDS011;64085;54.974;73.410;2023-06-10T16:12:27;6.25;;;4.28;;
75504;SDS011;64085;54.974;73.410;2023-06-10T16:14:53;8.73;;;4.70;;
75504;SDS011;64085;54.974;73.410;2023-06-10T16:17:18;6.30;;;4.55;;